sensor_id;sensor_type;location;lat;lon;timestamp;P1;durP1;ratioP1;P2;durP2;ratioP2
10699;SDS011;5401;41.986;21.452;2023-03-23T00:01:08;36.10;;;23.43;;
10699;SDS011;5401;41.986;21.452;2023-03-23T00:03:38;31.90;;;24.20;;
10699;SDS011;5401;41.986;21.452;2023-03-23T00:06:07;35.10;;;24.00;;
10699;SDS011;5401;41.986;21.452;2023-03-23T00:08:36;37.00;;;25.30;;
10699;SDS011;5401;41.986;21.452;2023-03-23T00:11:11;30.37;;;24.07;;
10699;SDS011;5401;41.986;21.452;2023-03-23T00:13:42;44.43;;;30.60;;
10699;SDS011;5401;41.986;21.452;2023-03-23T00:16:11;41.23;;;27.27;;
10699;SDS011;5401;41.986;21.452;2023-03-23T00:18:44;40.60;;;27.53;;
10699;SDS011;5401;41.986;21.452;2023-03-23T00:21:11;43.60;;;29.30;;
10699;SDS011;5401;41.986;21.452;2023-03-23T00:23:39;40.97;;;28.90;;
10699;SDS011;5401;41.986;21.452;2023-03-23T00:26:10;40.87;;;28.87;;
10699;SDS011;5401;41.986;21.452;2023-03-23T00:28:39;41.97;;;28.23;;
10699;SDS011;5401;41.986;21.452;2023-03-23T00:31:09;42.47;;;26.57;;
10699;SDS011;5401;41.986;21.452;2023-03-23T00:33:37;36.50;;;27.10;;
10699;SDS011;5401;41.986;21.452;2023-03-23T00:36:06;36.83;;;26.33;;
10699;SDS011;5401;41.986;21.452;2023-03-23T00:38:35;42.03;;;25.80;;
10699;SDS011;5401;41.986;21.452;2023-03-23T00:41:04;30.77;;;23.83;;
10699;SDS011;5401;41.986;21.452;2023-03-23T00:43:32;28.47;;;23.10;;
10699;SDS011;5401;41.986;21.452;2023-03-23T00:46:01;37.43;;;25.00;;
10699;SDS011;5401;41.986;21.452;2023-03-23T00:48:35;33.53;;;25.77;;
10699;SDS011;5401;41.986;21.452;2023-03-23T00:51:06;34.17;;;24.57;;
10699;SDS011;5401;41.986;21.452;2023-03-23T00:53:37;36.00;;;26.07;;
10699;SDS011;5401;41.986;21.452;2023-03-23T00:56:06;35.43;;;25.17;;
10699;SDS011;5401;41.986;21.452;2023-03-23T00:58:35;38.80;;;25.40;;
10699;SDS011;5401;41.986;21.452;2023-03-23T01:01:02;37.00;;;24.67;;
10699;SDS011;5401;41.986;21.452;2023-03-23T01:03:31;36.00;;;24.67;;
10699;SDS011;5401;41.986;21.452;2023-03-23T01:06:05;37.40;;;25.47;;
10699;SDS011;5401;41.986;21.452;2023-03-23T01:08:38;30.43;;;23.33;;
10699;SDS011;5401;41.986;21.452;2023-03-23T01:11:12;31.67;;;23.37;;
10699;SDS011;5401;41.986;21.452;2023-03-23T01:13:41;38.70;;;26.07;;
10699;SDS011;5401;41.986;21.452;2023-03-23T01:16:09;35.23;;;24.60;;
10699;SDS011;5401;41.986;21.452;2023-03-23T01:18:37;33.90;;;24.73;;
10699;SDS011;5401;41.986;21.452;2023-03-23T01:21:08;37.50;;;26.47;;
10699;SDS011;5401;41.986;21.452;2023-03-23T01:23:37;30.67;;;23.87;;
10699;SDS011;5401;41.986;21.452;2023-03-23T01:26:05;35.63;;;24.60;;
10699;SDS011;5401;41.986;21.452;2023-03-23T01:28:34;41.47;;;27.00;;
10699;SDS011;5401;41.986;21.452;2023-03-23T01:31:02;37.57;;;25.40;;
10699;SDS011;5401;41.986;21.452;2023-03-23T01:33:31;34.23;;;26.23;;
10699;SDS011;5401;41.986;21.452;2023-03-23T01:36:01;44.53;;;28.90;;
10699;SDS011;5401;41.986;21.452;2023-03-23T01:38:32;35.53;;;25.70;;
10699;SDS011;5401;41.986;21.452;2023-03-23T01:40:59;31.57;;;23.80;;
10699;SDS011;5401;41.986;21.452;2023-03-23T01:43:27;36.97;;;26.27;;
10699;SDS011;5401;41.986;21.452;2023-03-23T01:45:55;40.30;;;29.30;;
10699;SDS011;5401;41.986;21.452;2023-03-23T01:48:23;37.53;;;27.50;;
10699;SDS011;5401;41.986;21.452;2023-03-23T01:50:55;39.83;;;26.47;;
10699;SDS011;5401;41.986;21.452;2023-03-23T01:53:26;38.57;;;26.33;;
10699;SDS011;5401;41.986;21.452;2023-03-23T01:55:58;39.47;;;26.57;;
10699;SDS011;5401;41.986;21.452;2023-03-23T01:58:29;39.10;;;27.67;;
10699;SDS011;5401;41.986;21.452;2023-03-23T02:01:02;33.80;;;24.83;;
10699;SDS011;5401;41.986;21.452;2023-03-23T02:03:33;33.57;;;22.90;;
10699;SDS011;5401;41.986;21.452;2023-03-23T02:06:03;29.37;;;22.30;;
10699;SDS011;5401;41.986;21.452;2023-03-23T02:08:31;32.17;;;24.43;;
10699;SDS011;5401;41.986;21.452;2023-03-23T02:11:01;27.10;;;21.67;;
10699;SDS011;5401;41.986;21.452;2023-03-23T02:13:30;31.17;;;22.50;;
10699;SDS011;5401;41.986;21.452;2023-03-23T02:16:00;26.10;;;22.77;;
10699;SDS011;5401;41.986;21.452;2023-03-23T02:18:44;36.37;;;23.60;;
10699;SDS011;5401;41.986;21.452;2023-03-23T02:21:27;32.47;;;25.47;;
10699;SDS011;5401;41.986;21.452;2023-03-23T02:30:39;28.90;;;22.97;;
10699;SDS011;5401;41.986;21.452;2023-03-23T02:36:08;42.90;;;26.10;;
10699;SDS011;5401;41.986;21.452;2023-03-23T02:38:42;31.10;;;22.20;;
10699;SDS011;5401;41.986;21.452;2023-03-23T02:41:17;32.30;;;20.67;;
10699;SDS011;5401;41.986;21.452;2023-03-23T02:43:49;28.27;;;22.63;;
10699;SDS011;5401;41.986;21.452;2023-03-23T02:46:17;32.97;;;22.60;;
10699;SDS011;5401;41.986;21.452;2023-03-23T02:48:48;28.47;;;22.97;;
10699;SDS011;5401;41.986;21.452;2023-03-23T02:51:19;29.50;;;21.33;;
10699;SDS011;5401;41.986;21.452;2023-03-23T02:53:48;30.73;;;22.60;;
10699;SDS011;5401;41.986;21.452;2023-03-23T02:56:19;29.00;;;22.10;;
10699;SDS011;5401;41.986;21.452;2023-03-23T02:58:49;31.57;;;22.20;;
10699;SDS011;5401;41.986;21.452;2023-03-23T03:04:20;32.37;;;21.77;;
10699;SDS011;5401;41.986;21.452;2023-03-23T03:06:55;30.40;;;21.73;;
10699;SDS011;5401;41.986;21.452;2023-03-23T03:09:40;30.77;;;20.70;;
10699;SDS011;5401;41.986;21.452;2023-03-23T03:12:15;28.57;;;20.33;;
10699;SDS011;5401;41.986;21.452;2023-03-23T03:14:51;29.30;;;20.00;;
10699;SDS011;5401;41.986;21.452;2023-03-23T03:17:26;26.57;;;20.97;;
10699;SDS011;5401;41.986;21.452;2023-03-23T03:19:58;28.47;;;22.37;;
10699;SDS011;5401;41.986;21.452;2023-03-23T03:22:32;28.57;;;21.93;;
10699;SDS011;5401;41.986;21.452;2023-03-23T03:25:07;30.80;;;21.47;;
10699;SDS011;5401;41.986;21.452;2023-03-23T03:27:38;34.07;;;21.47;;
10699;SDS011;5401;41.986;21.452;2023-03-23T03:30:08;25.80;;;21.43;;
10699;SDS011;5401;41.986;21.452;2023-03-23T03:32:40;31.37;;;20.77;;
10699;SDS011;5401;41.986;21.452;2023-03-23T03:35:13;26.97;;;21.30;;
10699;SDS011;5401;41.986;21.452;2023-03-23T03:37:41;33.33;;;21.70;;
10699;SDS011;5401;41.986;21.452;2023-03-23T03:40:11;28.80;;;21.57;;
10699;SDS011;5401;41.986;21.452;2023-03-23T03:42:42;32.77;;;21.53;;
10699;SDS011;5401;41.986;21.452;2023-03-23T03:45:12;28.23;;;22.47;;
10699;SDS011;5401;41.986;21.452;2023-03-23T03:47:41;24.10;;;21.47;;
10699;SDS011;5401;41.986;21.452;2023-03-23T03:50:09;27.80;;;20.83;;
10699;SDS011;5401;41.986;21.452;2023-03-23T03:52:38;26.10;;;22.30;;
10699;SDS011;5401;41.986;21.452;2023-03-23T03:55:07;27.50;;;21.13;;
10699;SDS011;5401;41.986;21.452;2023-03-23T03:57:38;31.23;;;22.13;;
10699;SDS011;5401;41.986;21.452;2023-03-23T04:00:07;29.50;;;22.13;;
10699;SDS011;5401;41.986;21.452;2023-03-23T04:02:44;30.17;;;23.00;;
10699;SDS011;5401;41.986;21.452;2023-03-23T04:05:17;27.03;;;21.80;;
10699;SDS011;5401;41.986;21.452;2023-03-23T04:07:47;27.87;;;22.50;;
10699;SDS011;5401;41.986;21.452;2023-03-23T04:10:17;32.37;;;22.93;;
10699;SDS011;5401;41.986;21.452;2023-03-23T04:12:46;26.30;;;21.63;;
10699;SDS011;5401;41.986;21.452;2023-03-23T04:15:14;30.37;;;23.33;;
10699;SDS011;5401;41.986;21.452;2023-03-23T04:17:42;32.33;;;23.57;;
10699;SDS011;5401;41.986;21.452;2023-03-23T04:20:09;31.47;;;22.87;;
10699;SDS011;5401;41.986;21.452;2023-03-23T04:22:43;29.00;;;22.63;;
10699;SDS011;5401;41.986;21.452;2023-03-23T04:25:16;28.63;;;22.63;;
10699;SDS011;5401;41.986;21.452;2023-03-23T04:27:46;30.30;;;22.40;;
10699;SDS011;5401;41.986;21.452;2023-03-23T04:30:18;32.03;;;21.60;;
10699;SDS011;5401;41.986;21.452;2023-03-23T04:32:47;34.47;;;22.83;;
10699;SDS011;5401;41.986;21.452;2023-03-23T04:35:18;34.57;;;21.40;;
10699;SDS011;5401;41.986;21.452;2023-03-23T04:37:48;47.30;;;21.27;;
10699;SDS011;5401;41.986;21.452;2023-03-23T04:40:17;39.87;;;20.83;;
10699;SDS011;5401;41.986;21.452;2023-03-23T04:42:45;35.63;;;20.37;;
10699;SDS011;5401;41.986;21.452;2023-03-23T04:45:15;35.23;;;21.00;;
10699;SDS011;5401;41.986;21.452;2023-03-23T04:47:47;39.30;;;21.20;;
10699;SDS011;5401;41.986;21.452;2023-03-23T04:50:19;31.00;;;21.37;;
10699;SDS011;5401;41.986;21.452;2023-03-23T04:52:50;37.93;;;21.10;;
10699;SDS011;5401;41.986;21.452;2023-03-23T04:55:21;40.13;;;20.67;;
10699;SDS011;5401;41.986;21.452;2023-03-23T04:57:48;33.77;;;19.40;;
10699;SDS011;5401;41.986;21.452;2023-03-23T05:00:16;41.30;;;20.27;;
10699;SDS011;5401;41.986;21.452;2023-03-23T05:02:46;39.97;;;20.40;;
10699;SDS011;5401;41.986;21.452;2023-03-23T05:05:17;35.03;;;21.23;;
10699;SDS011;5401;41.986;21.452;2023-03-23T05:07:46;38.33;;;21.13;;
10699;SDS011;5401;41.986;21.452;2023-03-23T05:10:14;38.60;;;20.93;;
10699;SDS011;5401;41.986;21.452;2023-03-23T05:12:44;33.67;;;20.17;;
10699;SDS011;5401;41.986;21.452;2023-03-23T05:15:12;33.77;;;19.83;;
10699;SDS011;5401;41.986;21.452;2023-03-23T05:17:40;47.83;;;21.63;;
10699;SDS011;5401;41.986;21.452;2023-03-23T05:20:12;38.93;;;22.23;;
10699;SDS011;5401;41.986;21.452;2023-03-23T05:22:44;38.70;;;22.03;;
10699;SDS011;5401;41.986;21.452;2023-03-23T05:25:13;40.80;;;23.13;;
10699;SDS011;5401;41.986;21.452;2023-03-23T05:27:41;35.97;;;21.77;;
10699;SDS011;5401;41.986;21.452;2023-03-23T05:30:10;35.40;;;20.70;;
10699;SDS011;5401;41.986;21.452;2023-03-23T05:32:41;30.87;;;20.30;;
10699;SDS011;5401;41.986;21.452;2023-03-23T05:35:08;29.07;;;20.77;;
10699;SDS011;5401;41.986;21.452;2023-03-23T05:37:37;26.10;;;20.30;;
10699;SDS011;5401;41.986;21.452;2023-03-23T05:40:05;27.33;;;20.37;;
10699;SDS011;5401;41.986;21.452;2023-03-23T05:42:34;26.50;;;20.37;;
10699;SDS011;5401;41.986;21.452;2023-03-23T05:45:02;26.03;;;20.63;;
10699;SDS011;5401;41.986;21.452;2023-03-23T05:47:31;27.17;;;20.47;;
10699;SDS011;5401;41.986;21.452;2023-03-23T05:49:59;26.70;;;19.43;;
10699;SDS011;5401;41.986;21.452;2023-03-23T05:52:26;30.20;;;20.97;;
10699;SDS011;5401;41.986;21.452;2023-03-23T05:54:54;57.17;;;28.17;;
10699;SDS011;5401;41.986;21.452;2023-03-23T05:57:22;33.67;;;22.40;;
10699;SDS011;5401;41.986;21.452;2023-03-23T05:59:49;37.80;;;22.53;;
10699;SDS011;5401;41.986;21.452;2023-03-23T06:02:17;39.67;;;20.87;;
10699;SDS011;5401;41.986;21.452;2023-03-23T06:04:46;37.83;;;20.50;;
10699;SDS011;5401;41.986;21.452;2023-03-23T06:07:14;32.23;;;21.07;;
10699;SDS011;5401;41.986;21.452;2023-03-23T06:09:42;24.50;;;19.00;;
10699;SDS011;5401;41.986;21.452;2023-03-23T06:12:09;37.27;;;20.57;;
10699;SDS011;5401;41.986;21.452;2023-03-23T06:14:37;30.90;;;19.20;;
10699;SDS011;5401;41.986;21.452;2023-03-23T06:17:05;27.87;;;18.33;;
10699;SDS011;5401;41.986;21.452;2023-03-23T06:19:33;27.63;;;18.87;;
10699;SDS011;5401;41.986;21.452;2023-03-23T06:22:03;31.53;;;19.23;;
10699;SDS011;5401;41.986;21.452;2023-03-23T06:24:31;27.97;;;17.87;;
10699;SDS011;5401;41.986;21.452;2023-03-23T06:27:00;24.90;;;18.03;;
10699;SDS011;5401;41.986;21.452;2023-03-23T06:29:29;31.47;;;19.60;;
10699;SDS011;5401;41.986;21.452;2023-03-23T06:31:58;31.10;;;19.77;;
10699;SDS011;5401;41.986;21.452;2023-03-23T06:34:29;24.50;;;12.47;;
10699;SDS011;5401;41.986;21.452;2023-03-23T06:36:58;12.53;;;10.47;;
10699;SDS011;5401;41.986;21.452;2023-03-23T06:39:27;16.80;;;11.70;;
10699;SDS011;5401;41.986;21.452;2023-03-23T06:41:56;19.63;;;10.93;;
10699;SDS011;5401;41.986;21.452;2023-03-23T06:44:25;14.87;;;13.10;;
10699;SDS011;5401;41.986;21.452;2023-03-23T06:46:53;15.23;;;13.40;;
10699;SDS011;5401;41.986;21.452;2023-03-23T06:49:20;27.80;;;14.30;;
10699;SDS011;5401;41.986;21.452;2023-03-23T06:51:48;21.83;;;13.00;;
10699;SDS011;5401;41.986;21.452;2023-03-23T06:54:16;25.70;;;12.20;;
10699;SDS011;5401;41.986;21.452;2023-03-23T06:56:44;13.50;;;11.53;;
10699;SDS011;5401;41.986;21.452;2023-03-23T06:59:12;30.50;;;15.97;;
10699;SDS011;5401;41.986;21.452;2023-03-23T07:01:40;20.87;;;14.13;;
10699;SDS011;5401;41.986;21.452;2023-03-23T07:04:07;39.37;;;18.73;;
10699;SDS011;5401;41.986;21.452;2023-03-23T07:06:35;25.73;;;15.37;;
10699;SDS011;5401;41.986;21.452;2023-03-23T07:09:03;17.40;;;12.70;;
10699;SDS011;5401;41.986;21.452;2023-03-23T07:11:31;18.10;;;13.47;;
10699;SDS011;5401;41.986;21.452;2023-03-23T07:14:00;14.83;;;12.57;;
10699;SDS011;5401;41.986;21.452;2023-03-23T07:16:28;22.63;;;18.17;;
10699;SDS011;5401;41.986;21.452;2023-03-23T07:18:56;30.90;;;18.53;;
10699;SDS011;5401;41.986;21.452;2023-03-23T07:21:25;24.40;;;18.70;;
10699;SDS011;5401;41.986;21.452;2023-03-23T07:23:52;26.23;;;19.77;;
10699;SDS011;5401;41.986;21.452;2023-03-23T07:26:20;32.27;;;20.73;;
10699;SDS011;5401;41.986;21.452;2023-03-23T07:28:48;31.93;;;20.57;;
10699;SDS011;5401;41.986;21.452;2023-03-23T07:31:17;27.37;;;21.50;;
10699;SDS011;5401;41.986;21.452;2023-03-23T07:33:45;29.17;;;20.60;;
10699;SDS011;5401;41.986;21.452;2023-03-23T07:36:14;23.20;;;19.07;;
10699;SDS011;5401;41.986;21.452;2023-03-23T07:38:42;44.17;;;24.97;;
10699;SDS011;5401;41.986;21.452;2023-03-23T07:41:09;27.93;;;19.03;;
10699;SDS011;5401;41.986;21.452;2023-03-23T07:43:38;26.43;;;19.93;;
10699;SDS011;5401;41.986;21.452;2023-03-23T07:46:06;30.67;;;20.77;;
10699;SDS011;5401;41.986;21.452;2023-03-23T07:48:35;28.57;;;20.07;;
10699;SDS011;5401;41.986;21.452;2023-03-23T07:51:03;25.73;;;18.37;;
10699;SDS011;5401;41.986;21.452;2023-03-23T07:53:31;23.87;;;19.73;;
10699;SDS011;5401;41.986;21.452;2023-03-23T07:55:59;31.83;;;20.23;;
10699;SDS011;5401;41.986;21.452;2023-03-23T07:58:29;33.07;;;20.03;;
10699;SDS011;5401;41.986;21.452;2023-03-23T08:00:56;29.17;;;19.63;;
10699;SDS011;5401;41.986;21.452;2023-03-23T08:03:24;24.17;;;20.23;;
10699;SDS011;5401;41.986;21.452;2023-03-23T08:05:53;19.90;;;17.83;;
10699;SDS011;5401;41.986;21.452;2023-03-23T08:08:24;24.23;;;18.57;;
10699;SDS011;5401;41.986;21.452;2023-03-23T08:10:52;29.43;;;19.40;;
10699;SDS011;5401;41.986;21.452;2023-03-23T08:13:19;25.47;;;19.70;;
10699;SDS011;5401;41.986;21.452;2023-03-23T08:15:47;25.67;;;18.63;;
10699;SDS011;5401;41.986;21.452;2023-03-23T08:18:15;22.97;;;18.60;;
10699;SDS011;5401;41.986;21.452;2023-03-23T08:20:43;26.00;;;19.03;;
10699;SDS011;5401;41.986;21.452;2023-03-23T08:23:12;26.13;;;18.93;;
10699;SDS011;5401;41.986;21.452;2023-03-23T08:25:40;30.07;;;19.53;;
10699;SDS011;5401;41.986;21.452;2023-03-23T08:28:08;23.47;;;19.63;;
10699;SDS011;5401;41.986;21.452;2023-03-23T08:30:37;23.60;;;19.40;;
10699;SDS011;5401;41.986;21.452;2023-03-23T08:33:05;23.07;;;19.13;;
10699;SDS011;5401;41.986;21.452;2023-03-23T08:35:34;33.83;;;20.03;;
10699;SDS011;5401;41.986;21.452;2023-03-23T08:38:01;26.60;;;19.27;;
10699;SDS011;5401;41.986;21.452;2023-03-23T08:40:30;22.63;;;17.80;;
10699;SDS011;5401;41.986;21.452;2023-03-23T08:42:59;21.93;;;17.43;;
10699;SDS011;5401;41.986;21.452;2023-03-23T08:45:27;20.53;;;16.10;;
10699;SDS011;5401;41.986;21.452;2023-03-23T08:47:54;36.90;;;20.87;;
10699;SDS011;5401;41.986;21.452;2023-03-23T08:50:23;23.20;;;16.10;;
10699;SDS011;5401;41.986;21.452;2023-03-23T08:52:53;48.97;;;26.50;;
10699;SDS011;5401;41.986;21.452;2023-03-23T08:55:21;19.03;;;16.40;;
10699;SDS011;5401;41.986;21.452;2023-03-23T08:57:50;17.83;;;15.30;;
10699;SDS011;5401;41.986;21.452;2023-03-23T09:00:19;17.97;;;13.43;;
10699;SDS011;5401;41.986;21.452;2023-03-23T09:02:50;16.47;;;12.27;;
10699;SDS011;5401;41.986;21.452;2023-03-23T09:05:20;17.20;;;13.87;;
10699;SDS011;5401;41.986;21.452;2023-03-23T09:07:50;16.73;;;12.87;;
10699;SDS011;5401;41.986;21.452;2023-03-23T09:10:19;14.43;;;11.57;;
10699;SDS011;5401;41.986;21.452;2023-03-23T09:12:51;13.33;;;12.03;;
10699;SDS011;5401;41.986;21.452;2023-03-23T09:15:19;13.33;;;10.70;;
10699;SDS011;5401;41.986;21.452;2023-03-23T09:17:47;27.67;;;15.37;;
10699;SDS011;5401;41.986;21.452;2023-03-23T09:20:16;56.43;;;22.10;;
10699;SDS011;5401;41.986;21.452;2023-03-23T09:22:47;30.17;;;15.17;;
10699;SDS011;5401;41.986;21.452;2023-03-23T09:25:17;13.77;;;9.80;;
10699;SDS011;5401;41.986;21.452;2023-03-23T09:27:50;14.03;;;9.97;;
10699;SDS011;5401;41.986;21.452;2023-03-23T09:30:23;12.23;;;11.03;;
10699;SDS011;5401;41.986;21.452;2023-03-23T09:32:52;12.63;;;11.33;;
10699;SDS011;5401;41.986;21.452;2023-03-23T09:35:20;14.37;;;11.27;;
10699;SDS011;5401;41.986;21.452;2023-03-23T09:37:49;13.90;;;9.90;;
10699;SDS011;5401;41.986;21.452;2023-03-23T09:40:18;12.47;;;10.43;;
10699;SDS011;5401;41.986;21.452;2023-03-23T09:43:03;11.47;;;10.37;;
10699;SDS011;5401;41.986;21.452;2023-03-23T09:45:43;10.60;;;9.60;;
10699;SDS011;5401;41.986;21.452;2023-03-23T09:51:19;10.93;;;8.43;;
10699;SDS011;5401;41.986;21.452;2023-03-23T09:54:03;9.80;;;8.00;;
10699;SDS011;5401;41.986;21.452;2023-03-23T09:56:37;8.37;;;7.57;;
10699;SDS011;5401;41.986;21.452;2023-03-23T09:59:11;10.17;;;8.80;;
10699;SDS011;5401;41.986;21.452;2023-03-23T10:01:44;13.73;;;8.80;;
10699;SDS011;5401;41.986;21.452;2023-03-23T10:04:21;11.17;;;8.37;;
10699;SDS011;5401;41.986;21.452;2023-03-23T10:06:56;12.97;;;10.07;;
10699;SDS011;5401;41.986;21.452;2023-03-23T10:09:27;9.77;;;8.27;;
10699;SDS011;5401;41.986;21.452;2023-03-23T10:11:59;12.27;;;9.50;;
10699;SDS011;5401;41.986;21.452;2023-03-23T10:17:27;13.43;;;8.43;;
10699;SDS011;5401;41.986;21.452;2023-03-23T10:19:58;10.27;;;7.87;;
10699;SDS011;5401;41.986;21.452;2023-03-23T10:22:42;8.57;;;7.77;;
10699;SDS011;5401;41.986;21.452;2023-03-23T10:25:16;8.30;;;6.80;;
10699;SDS011;5401;41.986;21.452;2023-03-23T10:27:48;7.80;;;6.83;;
10699;SDS011;5401;41.986;21.452;2023-03-23T10:30:22;8.63;;;7.10;;
10699;SDS011;5401;41.986;21.452;2023-03-23T10:32:55;7.30;;;6.60;;
10699;SDS011;5401;41.986;21.452;2023-03-23T10:35:28;11.10;;;7.07;;
10699;SDS011;5401;41.986;21.452;2023-03-23T10:38:00;10.23;;;7.67;;
10699;SDS011;5401;41.986;21.452;2023-03-23T10:40:31;9.33;;;7.43;;
10699;SDS011;5401;41.986;21.452;2023-03-23T10:42:59;8.63;;;6.63;;
10699;SDS011;5401;41.986;21.452;2023-03-23T10:45:28;9.07;;;6.93;;
10699;SDS011;5401;41.986;21.452;2023-03-23T10:47:59;8.73;;;6.83;;
10699;SDS011;5401;41.986;21.452;2023-03-23T10:50:34;7.03;;;6.33;;
10699;SDS011;5401;41.986;21.452;2023-03-23T10:53:04;9.03;;;6.83;;
10699;SDS011;5401;41.986;21.452;2023-03-23T10:55:44;7.20;;;6.50;;
10699;SDS011;5401;41.986;21.452;2023-03-23T10:58:21;10.40;;;7.03;;
10699;SDS011;5401;41.986;21.452;2023-03-23T11:00:52;9.63;;;6.83;;
10699;SDS011;5401;41.986;21.452;2023-03-23T11:03:24;8.30;;;6.60;;
10699;SDS011;5401;41.986;21.452;2023-03-23T11:05:59;10.67;;;7.53;;
10699;SDS011;5401;41.986;21.452;2023-03-23T11:08:30;13.03;;;6.70;;
10699;SDS011;5401;41.986;21.452;2023-03-23T11:11:07;7.37;;;6.63;;
10699;SDS011;5401;41.986;21.452;2023-03-23T11:13:39;9.30;;;6.93;;
10699;SDS011;5401;41.986;21.452;2023-03-23T11:16:21;7.63;;;6.27;;
10699;SDS011;5401;41.986;21.452;2023-03-23T11:18:50;8.47;;;6.07;;
10699;SDS011;5401;41.986;21.452;2023-03-23T11:21:19;6.77;;;5.60;;
10699;SDS011;5401;41.986;21.452;2023-03-23T11:23:48;6.43;;;5.67;;
10699;SDS011;5401;41.986;21.452;2023-03-23T11:26:19;7.13;;;5.70;;
10699;SDS011;5401;41.986;21.452;2023-03-23T11:28:53;12.03;;;5.87;;
10699;SDS011;5401;41.986;21.452;2023-03-23T11:31:27;9.90;;;5.63;;
10699;SDS011;5401;41.986;21.452;2023-03-23T11:33:57;10.53;;;5.73;;
10699;SDS011;5401;41.986;21.452;2023-03-23T11:36:32;12.90;;;6.33;;
10699;SDS011;5401;41.986;21.452;2023-03-23T11:39:01;10.33;;;6.07;;
10699;SDS011;5401;41.986;21.452;2023-03-23T11:41:32;6.40;;;5.70;;
10699;SDS011;5401;41.986;21.452;2023-03-23T11:44:08;6.20;;;5.60;;
10699;SDS011;5401;41.986;21.452;2023-03-23T11:46:42;7.90;;;5.37;;
10699;SDS011;5401;41.986;21.452;2023-03-23T11:49:22;8.60;;;5.63;;
10699;SDS011;5401;41.986;21.452;2023-03-23T11:51:59;9.20;;;5.00;;
10699;SDS011;5401;41.986;21.452;2023-03-23T11:54:33;6.37;;;5.33;;
10699;SDS011;5401;41.986;21.452;2023-03-23T11:57:06;8.73;;;5.63;;
10699;SDS011;5401;41.986;21.452;2023-03-23T11:59:36;7.10;;;5.67;;
10699;SDS011;5401;41.986;21.452;2023-03-23T12:02:12;7.83;;;5.90;;
10699;SDS011;5401;41.986;21.452;2023-03-23T12:05:14;9.53;;;5.30;;
10699;SDS011;5401;41.986;21.452;2023-03-23T12:08:01;16.27;;;5.63;;
10699;SDS011;5401;41.986;21.452;2023-03-23T12:10:43;6.50;;;5.83;;
10699;SDS011;5401;41.986;21.452;2023-03-23T12:13:27;7.43;;;6.07;;
10699;SDS011;5401;41.986;21.452;2023-03-23T12:16:06;10.03;;;5.30;;
10699;SDS011;5401;41.986;21.452;2023-03-23T12:18:47;6.50;;;5.83;;
10699;SDS011;5401;41.986;21.452;2023-03-23T12:21:28;6.13;;;5.63;;
10699;SDS011;5401;41.986;21.452;2023-03-23T12:24:05;7.43;;;5.50;;
10699;SDS011;5401;41.986;21.452;2023-03-23T12:26:43;7.87;;;5.80;;
10699;SDS011;5401;41.986;21.452;2023-03-23T12:29:25;7.40;;;5.93;;
10699;SDS011;5401;41.986;21.452;2023-03-23T12:32:16;11.20;;;6.00;;
10699;SDS011;5401;41.986;21.452;2023-03-23T12:34:58;8.10;;;5.90;;
10699;SDS011;5401;41.986;21.452;2023-03-23T12:37:37;9.30;;;6.20;;
10699;SDS011;5401;41.986;21.452;2023-03-23T12:40:28;6.80;;;6.07;;
10699;SDS011;5401;41.986;21.452;2023-03-23T12:43:07;5.43;;;4.87;;
10699;SDS011;5401;41.986;21.452;2023-03-23T12:45:43;5.03;;;4.60;;
10699;SDS011;5401;41.986;21.452;2023-03-23T12:48:20;12.20;;;5.20;;
10699;SDS011;5401;41.986;21.452;2023-03-23T12:51:02;5.20;;;4.30;;
10699;SDS011;5401;41.986;21.452;2023-03-23T12:53:38;5.43;;;4.30;;
10699;SDS011;5401;41.986;21.452;2023-03-23T12:56:11;7.53;;;5.10;;
10699;SDS011;5401;41.986;21.452;2023-03-23T12:58:45;8.07;;;7.27;;
10699;SDS011;5401;41.986;21.452;2023-03-23T13:01:14;6.53;;;4.20;;
10699;SDS011;5401;41.986;21.452;2023-03-23T13:03:49;5.67;;;4.57;;
10699;SDS011;5401;41.986;21.452;2023-03-23T13:06:25;6.93;;;5.07;;
10699;SDS011;5401;41.986;21.452;2023-03-23T13:08:58;6.53;;;5.27;;
10699;SDS011;5401;41.986;21.452;2023-03-23T13:11:33;5.77;;;5.27;;
10699;SDS011;5401;41.986;21.452;2023-03-23T13:14:05;7.33;;;4.93;;
10699;SDS011;5401;41.986;21.452;2023-03-23T13:16:43;5.10;;;4.63;;
10699;SDS011;5401;41.986;21.452;2023-03-23T13:19:21;5.40;;;4.57;;
10699;SDS011;5401;41.986;21.452;2023-03-23T13:21:55;5.70;;;4.40;;
10699;SDS011;5401;41.986;21.452;2023-03-23T13:24:29;5.73;;;3.80;;
10699;SDS011;5401;41.986;21.452;2023-03-23T13:27:01;5.00;;;4.50;;
10699;SDS011;5401;41.986;21.452;2023-03-23T13:29:29;6.07;;;3.97;;
10699;SDS011;5401;41.986;21.452;2023-03-23T13:32:18;4.80;;;4.40;;
10699;SDS011;5401;41.986;21.452;2023-03-23T13:34:46;5.47;;;4.53;;
10699;SDS011;5401;41.986;21.452;2023-03-23T13:37:23;6.70;;;4.03;;
10699;SDS011;5401;41.986;21.452;2023-03-23T13:39:53;5.03;;;4.53;;
10699;SDS011;5401;41.986;21.452;2023-03-23T13:42:24;4.87;;;3.67;;
10699;SDS011;5401;41.986;21.452;2023-03-23T13:44:57;7.53;;;4.43;;
10699;SDS011;5401;41.986;21.452;2023-03-23T13:47:37;3.90;;;3.50;;
10699;SDS011;5401;41.986;21.452;2023-03-23T13:50:23;5.03;;;3.90;;
10699;SDS011;5401;41.986;21.452;2023-03-23T13:52:57;5.60;;;3.60;;
10699;SDS011;5401;41.986;21.452;2023-03-23T13:55:36;5.87;;;4.07;;
10699;SDS011;5401;41.986;21.452;2023-03-23T13:58:21;5.00;;;4.07;;
10699;SDS011;5401;41.986;21.452;2023-03-23T14:01:01;6.23;;;4.30;;
10699;SDS011;5401;41.986;21.452;2023-03-23T14:03:39;4.93;;;3.90;;
10699;SDS011;5401;41.986;21.452;2023-03-23T14:06:12;5.83;;;4.10;;
10699;SDS011;5401;41.986;21.452;2023-03-23T14:08:43;5.40;;;4.23;;
10699;SDS011;5401;41.986;21.452;2023-03-23T14:11:16;6.23;;;4.37;;
10699;SDS011;5401;41.986;21.452;2023-03-23T14:13:49;5.97;;;3.70;;
10699;SDS011;5401;41.986;21.452;2023-03-23T14:16:25;6.77;;;4.20;;
10699;SDS011;5401;41.986;21.452;2023-03-23T14:18:59;4.83;;;4.33;;
10699;SDS011;5401;41.986;21.452;2023-03-23T14:21:32;4.40;;;4.00;;
10699;SDS011;5401;41.986;21.452;2023-03-23T14:24:05;4.77;;;4.20;;
10699;SDS011;5401;41.986;21.452;2023-03-23T14:26:37;10.03;;;5.07;;
10699;SDS011;5401;41.986;21.452;2023-03-23T14:29:05;6.07;;;4.23;;
10699;SDS011;5401;41.986;21.452;2023-03-23T14:31:34;9.07;;;5.23;;
10699;SDS011;5401;41.986;21.452;2023-03-23T14:34:04;4.47;;;4.07;;
10699;SDS011;5401;41.986;21.452;2023-03-23T14:36:42;8.20;;;4.53;;
10699;SDS011;5401;41.986;21.452;2023-03-23T14:39:26;7.07;;;4.90;;
10699;SDS011;5401;41.986;21.452;2023-03-23T14:41:55;5.53;;;4.47;;
10699;SDS011;5401;41.986;21.452;2023-03-23T14:44:30;4.97;;;4.23;;
10699;SDS011;5401;41.986;21.452;2023-03-23T14:47:06;6.33;;;4.53;;
10699;SDS011;5401;41.986;21.452;2023-03-23T14:49:41;6.17;;;5.20;;
10699;SDS011;5401;41.986;21.452;2023-03-23T14:52:10;5.40;;;4.90;;
10699;SDS011;5401;41.986;21.452;2023-03-23T14:54:41;7.87;;;5.00;;
10699;SDS011;5401;41.986;21.452;2023-03-23T14:57:11;6.00;;;4.83;;
10699;SDS011;5401;41.986;21.452;2023-03-23T14:59:40;9.40;;;4.60;;
10699;SDS011;5401;41.986;21.452;2023-03-23T15:02:10;6.73;;;5.00;;
10699;SDS011;5401;41.986;21.452;2023-03-23T15:04:42;8.63;;;5.53;;
10699;SDS011;5401;41.986;21.452;2023-03-23T15:07:12;5.93;;;4.97;;
10699;SDS011;5401;41.986;21.452;2023-03-23T15:09:44;7.33;;;4.93;;
10699;SDS011;5401;41.986;21.452;2023-03-23T15:12:20;7.13;;;4.60;;
10699;SDS011;5401;41.986;21.452;2023-03-23T15:14:59;6.33;;;4.80;;